KERO2: Robert S. Kerr Lock & Dam & Reservoir (L&D 15)

Data processed at Mon Jan 15 2018 23:03


All information presented herein is the property of the government of the United States of America and may be revised or deleted at any time without prior notice.
Dissemination of this information without the expressed written consent of the Public Affairs Office, Tulsa District U.S. Army Corps of Engineers is strictly prohibited.
These data are gathered electronically and, as presented, have not undergone any form of quality control. These data are not guaranteed to be valid or correct.
Go to home page.
Go to station list.

Upstream stations:

Downstream station:
Previous Day
Next Day
Current Day
    
SHEF ID:       KERO2     Robert S. Kerr Lock & Dam
STATION TYPE:  NAVIGATION LOCK
Normal Pool:  Bottom =   458.00, Top =   460.00

               PRECIP ELEVATION   STORAGE   TW-ELEV    INFLOW   RELEASE  AIR-TEMP  WIND-DIRWIND-SPEED REL-HUMID SOLAR-RAD   VOLTAGE  BAT-LOAD
                   in        ft     ac-ft        ft       cfs       cfs         F       deg       mph         %      W/m2      volt      volt
              Ccp-Rev   Ccp-Rev   Ccp-Rev   Ccp-Rev  Regi-Rev  Regi-Rev   Ccp-Rev   Ccp-Rev   Ccp-Rev   Ccp-Rev   Ccp-Rev   Ccp-Rev   Ccp-Rev
(US/Central)
01/13 00:00      0.00    459.68    511898    412.29      -901      -901     26.06    277.10      2.60     54.78      0.00     13.81     13.36
01/13 01:00      0.00    459.68    511898    412.24      -901      -901     26.60    268.20      3.92     55.44      0.00     13.84     13.30
01/13 02:00      0.00    459.71    513191    412.28      -901      -901     26.92    278.20      5.58     54.04      0.00     13.82     13.36
01/13 03:00      0.00    459.74    514484    412.19      -901      -901     26.28    289.80      5.78     54.46      0.00     13.81     13.36
01/13 04:00      0.00    459.75    514915    412.23      -901      -901     25.61    292.70      7.18     54.22      0.00     13.81     13.30
01/13 05:00      0.00    459.73    514053    412.30      -901      -901     25.74    302.30      4.83     53.55      0.00     13.83     13.30
01/13 06:00      0.00    459.77    515777    412.27      -901      -901     25.18    308.20      5.95     50.93      0.00     13.81     13.36
01/13 07:00      0.00    459.78    516208    412.32      -901      -901     24.96    322.50      4.95     49.95      0.00     13.81     13.36
01/13 08:00      0.00    459.77    515777    412.47      -901      -901     23.41    320.20      7.08     52.33      5.00     13.81     13.36
01/13 09:00      0.00    459.76    515346    412.79      -901      -901     25.18    324.20      4.71     47.94     87.00     13.81     13.36
01/13 10:00      0.00    459.77    515777    412.68      -901      -901     26.17    319.00      7.39     45.13    271.00     13.83     13.36
01/13 11:00      0.00    459.84    518794    412.70      -901      -901     28.26    314.70      6.94     39.63    499.00     13.81     13.42
01/13 12:00      0.00    459.84    518794    412.19      -901      -901     31.55    301.20      5.31     34.44    619.00     13.82     13.36
01/13 13:00      0.00    459.82    517932    412.45      -901      -901     31.23    201.90      7.50     44.46    663.00     13.81     13.36
01/13 14:00      0.00    459.83    518363    412.35      -901      -901     32.09    205.70      8.57     42.92    377.00     13.81     13.36
01/13 15:00      0.00    459.84    518794    412.38      -901      -901     33.31    201.10      7.91     39.26    432.00     13.84     13.36
01/13 16:00      0.00    459.81    517501    412.96      -901      -901     34.18    203.80      6.57     37.61    369.00     13.82     13.48
01/13 17:00      0.00    459.78    516208    413.86      -901      -901     33.75    203.20      5.17     37.73    177.00     13.82     13.36
01/13 18:00      0.00    459.75    514915    414.22      -901      -901     34.09    216.60      4.70     34.26     14.00     13.82     13.36
01/13 19:00      0.00    459.70    512760    414.26      -901      -901     30.34    193.30      2.51     55.14      0.00     13.81     13.42
01/13 20:00      0.00    459.62    509312    413.43      -901      -901     29.14      7.20      0.77     57.46      0.00     13.83     13.36
01/13 21:00      0.00    459.68    511898    412.05      -901      -901     28.47    304.20      0.77     57.10      0.00     13.81     13.42
01/13 22:00      0.00    459.72    513622    411.68      -901      -901     29.70     36.20      0.71     66.87      0.00     13.83     13.30
01/13 23:00      0.00    459.68    511898    412.44      -901      -901     28.15     46.00      1.01     74.87      0.00     13.81     13.36